< Typhoon 199203 1992 Season Typhoon 199205 >
Typhoon 199204 (CHUCK)
General InformationTrack Information on Google MapsDetailed Wind InformationList of All Images || Disaster Info.ResourceGoogle EarthGE AnimationAtom FeedGeoJSON
Detalied Best Track (Time Zone = UTC)
Year Month Day Hour Lat. Long. Pressure (hPa) Wind (kt) Class Image Chart
1992 6 24 00 15.0 115.3 1002 0 2 Image Chart
1992 6 24 06 15.0 115.3 1000 0 2 Image Chart
1992 6 24 12 15.2 115.5 1000 0 2 Image Chart
1992 6 24 18 15.3 115.7 1000 0 2 Image Chart
1992 6 25 00 15.3 116.0 996 40 3 Image Chart
1992 6 25 06 14.7 115.5 992 40 3 Image Chart
1992 6 25 12 14.6 114.9 990 45 3 Image Chart
1992 6 25 18 14.6 114.3 990 45 3 Image Chart
1992 6 26 00 14.5 113.9 985 50 4 Image Chart
1992 6 26 06 14.6 113.6 980 55 4 Image Chart
1992 6 26 12 15.0 113.0 980 55 4 Image Chart
1992 6 26 18 15.7 112.8 975 60 4 Image Chart
1992 6 27 00 16.5 112.3 975 60 4 Image Chart
1992 6 27 06 16.8 111.8 970 65 5 Image Chart
1992 6 27 12 17.3 111.2 965 70 5 Image Chart
1992 6 27 18 17.8 110.4 965 70 5 Image Chart
1992 6 28 00 18.6 109.8 970 65 5 Image Chart
1992 6 28 06 19.1 109.3 970 65 5 Image Chart
1992 6 28 12 19.1 108.5 975 60 4 Image Chart
1992 6 28 18 19.5 107.8 980 55 4 Image Chart
1992 6 29 00 20.1 107.4 980 55 4 Image Chart
1992 6 29 06 20.4 107.0 985 50 4 Image Chart
1992 6 29 12 20.8 106.5 985 50 4 Image Chart
1992 6 29 18 21.3 105.8 990 45 3 Image Chart
1992 6 30 00 22.0 105.0 996 0 2 Image Chart
1992 6 30 06 22.0 105.0 998 0 2 Image Chart
1992 6 30 12 22.0 105.0 998 0 2 Image Chart
1992 6 30 18 22.0 105.0 998 0 2 Image Chart
1992 7 1 00 22.0 105.0 1000 0 2 Image Chart
1992 7 1 06 23.0 106.0 1000 0 2 Image Chart
1992 7 1 12 23.0 106.0 1000 0 2 Image Chart
1992 7 1 18 23.0 107.0 1002 0 2 Image Chart
1992 7 2 00 23.0 107.0 1002 0 2 Image Chart
Japan Meteorological Agency Best Track Data | Correction Date : 1992-12-25
< Typhoon 199203 1992 Season Typhoon 199205 >

Help